sensor_id;sensor_type;location;lat;lon;timestamp;pressure;altitude;pressure_sealevel;temperature;humidity
51496;BME280;37572;52.094;4.870;2023-05-22T00:00:40;101661.75;;;18.24;56.56
51496;BME280;37572;52.094;4.870;2023-05-22T00:03:05;101664.63;;;18.23;56.56
51496;BME280;37572;52.094;4.870;2023-05-22T00:05:32;101677.47;;;18.21;57.00
51496;BME280;37572;52.094;4.870;2023-05-22T00:07:58;101690.28;;;18.19;56.93
51496;BME280;37572;52.094;4.870;2023-05-22T00:10:24;101700.22;;;18.18;56.95
51496;BME280;37572;52.094;4.870;2023-05-22T00:12:49;101691.47;;;18.16;56.65
51496;BME280;37572;52.094;4.870;2023-05-22T00:15:15;101677.81;;;18.18;57.08
51496;BME280;37572;52.094;4.870;2023-05-22T00:17:40;101675.59;;;18.21;56.78
51496;BME280;37572;52.094;4.870;2023-05-22T00:20:07;101671.34;;;18.27;57.35
51496;BME280;37572;52.094;4.870;2023-05-22T00:22:33;101662.84;;;18.30;57.23
51496;BME280;37572;52.094;4.870;2023-05-22T00:25:02;101651.69;;;18.33;57.40
51496;BME280;37572;52.094;4.870;2023-05-22T00:27:28;101643.59;;;18.33;56.83
51496;BME280;37572;52.094;4.870;2023-05-22T00:29:53;101665.16;;;18.33;56.51
51496;BME280;37572;52.094;4.870;2023-05-22T00:32:19;101654.75;;;18.30;56.94
51496;BME280;37572;52.094;4.870;2023-05-22T00:34:44;101645.19;;;18.27;56.65
51496;BME280;37572;52.094;4.870;2023-05-22T00:37:09;101635.44;;;18.26;56.73
51496;BME280;37572;52.094;4.870;2023-05-22T00:39:35;101637.94;;;18.28;56.64
51496;BME280;37572;52.094;4.870;2023-05-22T00:42:00;101638.13;;;18.26;56.96
51496;BME280;37572;52.094;4.870;2023-05-22T00:44:26;101629.41;;;18.24;56.72
51496;BME280;37572;52.094;4.870;2023-05-22T00:46:51;101616.94;;;18.23;56.68
51496;BME280;37572;52.094;4.870;2023-05-22T00:49:17;101607.19;;;18.22;57.01
51496;BME280;37572;52.094;4.870;2023-05-22T00:51:42;101602.34;;;18.18;56.98
51496;BME280;37572;52.094;4.870;2023-05-22T00:54:09;101609.34;;;18.12;57.06
51496;BME280;37572;52.094;4.870;2023-05-22T00:56:34;101604.50;;;18.07;56.81
51496;BME280;37572;52.094;4.870;2023-05-22T00:59:00;101607.56;;;18.04;56.77
51496;BME280;37572;52.094;4.870;2023-05-22T01:01:25;101599.66;;;18.03;56.96
51496;BME280;37572;52.094;4.870;2023-05-22T01:04:00;101610.81;;;18.00;56.54
51496;BME280;37572;52.094;4.870;2023-05-22T01:06:27;101604.78;;;17.98;57.00
51496;BME280;37572;52.094;4.870;2023-05-22T01:08:56;101603.09;;;17.97;56.47
51496;BME280;37572;52.094;4.870;2023-05-22T01:11:24;101590.66;;;17.96;56.67
51496;BME280;37572;52.094;4.870;2023-05-22T01:14:03;101594.38;;;17.94;56.66
51496;BME280;37572;52.094;4.870;2023-05-22T01:16:50;101600.59;;;17.95;57.00
51496;BME280;37572;52.094;4.870;2023-05-22T01:19:51;101595.88;;;17.97;57.14
51496;BME280;37572;52.094;4.870;2023-05-22T01:30:49;101561.47;;;17.99;57.28
51496;BME280;37572;52.094;4.870;2023-05-22T01:33:17;101558.16;;;17.97;57.16
51496;BME280;37572;52.094;4.870;2023-05-22T01:35:47;101569.75;;;17.98;57.12
51496;BME280;37572;52.094;4.870;2023-05-22T01:38:15;101575.97;;;17.98;56.97
51496;BME280;37572;52.094;4.870;2023-05-22T01:40:41;101559.63;;;18.00;57.35
51496;BME280;37572;52.094;4.870;2023-05-22T01:43:07;101557.38;;;18.03;57.25
51496;BME280;37572;52.094;4.870;2023-05-22T01:45:32;101561.56;;;18.06;57.30
51496;BME280;37572;52.094;4.870;2023-05-22T01:47:57;101550.41;;;18.09;57.63
51496;BME280;37572;52.094;4.870;2023-05-22T01:50:23;101546.69;;;18.10;57.55
51496;BME280;37572;52.094;4.870;2023-05-22T01:55:51;101542.53;;;18.07;57.52
51496;BME280;37572;52.094;4.870;2023-05-22T02:01:04;101556.09;;;17.99;57.42
51496;BME280;37572;52.094;4.870;2023-05-22T02:03:32;101550.06;;;17.97;57.68
51496;BME280;37572;52.094;4.870;2023-05-22T02:06:04;101560.16;;;17.95;57.57
51496;BME280;37572;52.094;4.870;2023-05-22T02:08:31;101565.38;;;17.97;57.85
51496;BME280;37572;52.094;4.870;2023-05-22T02:10:58;101551.91;;;17.97;58.04
51496;BME280;37572;52.094;4.870;2023-05-22T02:13:24;101564.72;;;17.94;58.12
51496;BME280;37572;52.094;4.870;2023-05-22T02:15:50;101565.97;;;17.92;58.53
51496;BME280;37572;52.094;4.870;2023-05-22T02:18:16;101551.81;;;17.90;58.52
51496;BME280;37572;52.094;4.870;2023-05-22T02:20:41;101554.50;;;17.90;58.24
51496;BME280;37572;52.094;4.870;2023-05-22T02:23:07;101569.84;;;17.89;58.45
51496;BME280;37572;52.094;4.870;2023-05-22T02:25:32;101559.25;;;17.88;58.40
51496;BME280;37572;52.094;4.870;2023-05-22T02:27:58;101545.78;;;17.88;58.39
51496;BME280;37572;52.094;4.870;2023-05-22T02:30:23;101546.78;;;17.87;58.82
51496;BME280;37572;52.094;4.870;2023-05-22T02:32:48;101548.81;;;17.85;58.75
51496;BME280;37572;52.094;4.870;2023-05-22T02:35:14;101539.06;;;17.84;58.64
51496;BME280;37572;52.094;4.870;2023-05-22T02:37:39;101534.69;;;17.83;58.44
51496;BME280;37572;52.094;4.870;2023-05-22T02:40:05;101534.69;;;17.83;58.31
51496;BME280;37572;52.094;4.870;2023-05-22T02:42:31;101538.41;;;17.82;58.52
51496;BME280;37572;52.094;4.870;2023-05-22T02:44:56;101532.38;;;17.80;58.07
51496;BME280;37572;52.094;4.870;2023-05-22T02:47:21;101532.56;;;17.78;58.14
51496;BME280;37572;52.094;4.870;2023-05-22T02:49:47;101532.94;;;17.75;58.03
51496;BME280;37572;52.094;4.870;2023-05-22T02:52:12;101528.75;;;17.72;58.11
51496;BME280;37572;52.094;4.870;2023-05-22T02:54:37;101528.13;;;17.70;58.23
51496;BME280;37572;52.094;4.870;2023-05-22T02:57:03;101524.38;;;17.71;58.24
51496;BME280;37572;52.094;4.870;2023-05-22T02:59:28;101513.78;;;17.70;58.17
51496;BME280;37572;52.094;4.870;2023-05-22T03:01:54;101510.47;;;17.68;58.29
51496;BME280;37572;52.094;4.870;2023-05-22T03:04:20;101509.00;;;17.65;58.29
51496;BME280;37572;52.094;4.870;2023-05-22T03:06:45;101504.81;;;17.63;58.40
51496;BME280;37572;52.094;4.870;2023-05-22T03:09:10;101511.38;;;17.60;58.66
51496;BME280;37572;52.094;4.870;2023-05-22T03:11:36;101510.75;;;17.58;58.67
51496;BME280;37572;52.094;4.870;2023-05-22T03:14:02;101506.56;;;17.55;58.36
51496;BME280;37572;52.094;4.870;2023-05-22T03:16:27;101515.84;;;17.53;58.61
51496;BME280;37572;52.094;4.870;2023-05-22T03:19:09;101508.50;;;17.47;58.79
51496;BME280;37572;52.094;4.870;2023-05-22T03:21:35;101511.78;;;17.42;58.94
51496;BME280;37572;52.094;4.870;2023-05-22T03:24:00;101517.88;;;17.36;59.09
51496;BME280;37572;52.094;4.870;2023-05-22T03:26:26;101512.69;;;17.34;58.85
51496;BME280;37572;52.094;4.870;2023-05-22T03:28:52;101517.06;;;17.35;59.32
51496;BME280;37572;52.094;4.870;2023-05-22T03:31:18;101514.19;;;17.37;58.84
51496;BME280;37572;52.094;4.870;2023-05-22T03:33:43;101523.09;;;17.37;58.62
51496;BME280;37572;52.094;4.870;2023-05-22T03:36:08;101528.28;;;17.39;58.71
51496;BME280;37572;52.094;4.870;2023-05-22T03:38:34;101521.03;;;17.39;58.75
51496;BME280;37572;52.094;4.870;2023-05-22T03:40:59;101512.97;;;17.39;58.87
51496;BME280;37572;52.094;4.870;2023-05-22T03:43:24;101507.75;;;17.38;59.08
51496;BME280;37572;52.094;4.870;2023-05-22T03:45:50;101512.69;;;17.34;58.66
51496;BME280;37572;52.094;4.870;2023-05-22T03:48:15;101514.91;;;17.31;58.69
51496;BME280;37572;52.094;4.870;2023-05-22T03:50:40;101506.38;;;17.27;58.54
51496;BME280;37572;52.094;4.870;2023-05-22T03:53:05;101500.31;;;17.25;58.82
51496;BME280;37572;52.094;4.870;2023-05-22T03:55:31;101502.34;;;17.23;58.79
51496;BME280;37572;52.094;4.870;2023-05-22T03:57:56;101500.88;;;17.20;58.69
51496;BME280;37572;52.094;4.870;2023-05-22T04:00:22;101508.09;;;17.20;58.97
51496;BME280;37572;52.094;4.870;2023-05-22T04:02:47;101509.78;;;17.21;58.95
51496;BME280;37572;52.094;4.870;2023-05-22T04:05:14;101520.19;;;17.24;59.40
51496;BME280;37572;52.094;4.870;2023-05-22T04:07:40;101513.22;;;17.30;59.32
51496;BME280;37572;52.094;4.870;2023-05-22T04:10:05;101515.19;;;17.36;58.81
51496;BME280;37572;52.094;4.870;2023-05-22T04:12:31;101519.84;;;17.42;58.68
51496;BME280;37572;52.094;4.870;2023-05-22T04:14:56;101521.97;;;17.47;58.92
51496;BME280;37572;52.094;4.870;2023-05-22T04:17:22;101517.91;;;17.51;58.62
51496;BME280;37572;52.094;4.870;2023-05-22T04:19:47;101516.84;;;17.52;58.73
51496;BME280;37572;52.094;4.870;2023-05-22T04:22:12;101526.81;;;17.51;58.66
51496;BME280;37572;52.094;4.870;2023-05-22T04:24:38;101523.47;;;17.49;58.74
51496;BME280;37572;52.094;4.870;2023-05-22T04:27:04;101529.69;;;17.50;58.48
51496;BME280;37572;52.094;4.870;2023-05-22T04:29:30;101528.31;;;17.54;58.35
51496;BME280;37572;52.094;4.870;2023-05-22T04:31:55;101527.06;;;17.56;59.07
51496;BME280;37572;52.094;4.870;2023-05-22T04:34:20;101527.53;;;17.60;58.56
51496;BME280;37572;52.094;4.870;2023-05-22T04:36:46;101529.88;;;17.63;58.60
51496;BME280;37572;52.094;4.870;2023-05-22T04:39:12;101535.25;;;17.63;58.71
51496;BME280;37572;52.094;4.870;2023-05-22T04:41:40;101535.06;;;17.65;59.07
51496;BME280;37572;52.094;4.870;2023-05-22T04:44:06;101522.91;;;17.69;58.76
51496;BME280;37572;52.094;4.870;2023-05-22T04:46:32;101525.03;;;17.73;58.63
51496;BME280;37572;52.094;4.870;2023-05-22T04:49:00;101521.97;;;17.76;59.07
51496;BME280;37572;52.094;4.870;2023-05-22T04:51:27;101529.69;;;17.80;58.87
51496;BME280;37572;52.094;4.870;2023-05-22T04:53:52;101536.56;;;17.82;58.96
51496;BME280;37572;52.094;4.870;2023-05-22T04:56:20;101541.22;;;17.88;59.22
51496;BME280;37572;52.094;4.870;2023-05-22T04:58:46;101539.84;;;17.92;58.75
51496;BME280;37572;52.094;4.870;2023-05-22T05:01:14;101551.06;;;17.96;58.84
51496;BME280;37572;52.094;4.870;2023-05-22T05:03:40;101554.41;;;17.98;59.05
51496;BME280;37572;52.094;4.870;2023-05-22T05:06:06;101559.63;;;18.00;59.36
51496;BME280;37572;52.094;4.870;2023-05-22T05:08:32;101578.56;;;18.06;59.30
51496;BME280;37572;52.094;4.870;2023-05-22T05:10:58;101580.34;;;18.14;58.92
51496;BME280;37572;52.094;4.870;2023-05-22T05:13:23;101585.81;;;18.21;58.87
51496;BME280;37572;52.094;4.870;2023-05-22T05:15:49;101587.09;;;18.25;58.97
51496;BME280;37572;52.094;4.870;2023-05-22T05:18:14;101573.06;;;18.29;58.73
51496;BME280;37572;52.094;4.870;2023-05-22T05:20:41;101575.84;;;18.36;58.59
51496;BME280;37572;52.094;4.870;2023-05-22T05:23:06;101581.66;;;18.40;58.67
51496;BME280;37572;52.094;4.870;2023-05-22T05:25:33;101589.19;;;18.44;58.56
51496;BME280;37572;52.094;4.870;2023-05-22T05:28:02;101582.41;;;18.48;59.01
51496;BME280;37572;52.094;4.870;2023-05-22T05:30:29;101579.31;;;18.52;58.53
51496;BME280;37572;52.094;4.870;2023-05-22T05:32:55;101579.59;;;18.57;58.88
51496;BME280;37572;52.094;4.870;2023-05-22T05:35:21;101581.91;;;18.60;59.08
51496;BME280;37572;52.094;4.870;2023-05-22T05:37:46;101574.94;;;18.65;58.86
51496;BME280;37572;52.094;4.870;2023-05-22T05:40:12;101574.13;;;18.72;58.60
51496;BME280;37572;52.094;4.870;2023-05-22T05:42:37;101572.38;;;18.79;58.92
51496;BME280;37572;52.094;4.870;2023-05-22T05:45:03;101570.41;;;18.88;59.10
51496;BME280;37572;52.094;4.870;2023-05-22T05:47:28;101565.69;;;18.96;58.90
51496;BME280;37572;52.094;4.870;2023-05-22T05:49:53;101572.00;;;19.03;58.99
51496;BME280;37572;52.094;4.870;2023-05-22T05:52:19;101581.81;;;19.11;58.61
51496;BME280;37572;52.094;4.870;2023-05-22T05:54:44;101568.56;;;19.16;58.90
51496;BME280;37572;52.094;4.870;2023-05-22T05:57:13;101572.75;;;19.19;58.77
51496;BME280;37572;52.094;4.870;2023-05-22T05:59:38;101580.28;;;19.23;59.08
51496;BME280;37572;52.094;4.870;2023-05-22T06:02:04;101575.13;;;19.29;58.77
51496;BME280;37572;52.094;4.870;2023-05-22T06:04:29;101582.44;;;19.35;58.76
51496;BME280;37572;52.094;4.870;2023-05-22T06:06:54;101571.69;;;19.41;58.63
51496;BME280;37572;52.094;4.870;2023-05-22T06:09:20;101577.31;;;19.47;58.41
51496;BME280;37572;52.094;4.870;2023-05-22T06:11:46;101577.59;;;19.52;59.07
51496;BME280;37572;52.094;4.870;2023-05-22T06:14:11;101580.94;;;19.54;58.75
51496;BME280;37572;52.094;4.870;2023-05-22T06:16:36;101581.75;;;19.54;58.56
51496;BME280;37572;52.094;4.870;2023-05-22T06:19:02;101582.56;;;19.55;58.87
51496;BME280;37572;52.094;4.870;2023-05-22T06:21:28;101574.28;;;19.56;58.57
51496;BME280;37572;52.094;4.870;2023-05-22T06:23:54;101585.94;;;19.57;58.83
51496;BME280;37572;52.094;4.870;2023-05-22T06:26:19;101583.88;;;19.59;58.89
51496;BME280;37572;52.094;4.870;2023-05-22T06:28:45;101578.06;;;19.62;58.51
51496;BME280;37572;52.094;4.870;2023-05-22T06:31:11;101582.84;;;19.67;58.63
51496;BME280;37572;52.094;4.870;2023-05-22T06:33:36;101578.56;;;19.72;58.68
51496;BME280;37572;52.094;4.870;2023-05-22T06:36:05;101583.00;;;19.80;58.62
51496;BME280;37572;52.094;4.870;2023-05-22T06:38:31;101575.75;;;19.87;58.83
51496;BME280;37572;52.094;4.870;2023-05-22T06:40:56;101585.56;;;19.95;58.74
51496;BME280;37572;52.094;4.870;2023-05-22T06:43:22;101593.72;;;20.08;58.99
51496;BME280;37572;52.094;4.870;2023-05-22T06:45:47;101588.41;;;20.22;58.89
51496;BME280;37572;52.094;4.870;2023-05-22T06:48:12;101601.78;;;20.43;59.02
51496;BME280;37572;52.094;4.870;2023-05-22T06:50:37;101598.19;;;20.78;59.33
51496;BME280;37572;52.094;4.870;2023-05-22T06:53:03;101596.78;;;21.15;59.04
51496;BME280;37572;52.094;4.870;2023-05-22T06:55:28;101603.66;;;21.51;59.29
51496;BME280;37572;52.094;4.870;2023-05-22T06:57:53;101596.13;;;21.87;58.94
51496;BME280;37572;52.094;4.870;2023-05-22T07:00:19;101593.09;;;22.22;58.46
51496;BME280;37572;52.094;4.870;2023-05-22T07:02:45;101594.56;;;22.63;58.41
51496;BME280;37572;52.094;4.870;2023-05-22T07:05:10;101598.31;;;23.07;58.18
51496;BME280;37572;52.094;4.870;2023-05-22T07:07:35;101593.72;;;23.51;57.40
51496;BME280;37572;52.094;4.870;2023-05-22T07:10:01;101599.72;;;23.85;55.76
51496;BME280;37572;52.094;4.870;2023-05-22T07:12:26;101604.69;;;24.07;55.33
51496;BME280;37572;52.094;4.870;2023-05-22T07:14:52;101601.50;;;24.28;54.86
51496;BME280;37572;52.094;4.870;2023-05-22T07:17:17;101610.84;;;24.51;54.31
51496;BME280;37572;52.094;4.870;2023-05-22T07:19:46;101608.94;;;24.70;53.32
51496;BME280;37572;52.094;4.870;2023-05-22T07:22:13;101608.66;;;24.90;52.34
51496;BME280;37572;52.094;4.870;2023-05-22T07:24:38;101612.94;;;25.09;52.08
51496;BME280;37572;52.094;4.870;2023-05-22T07:27:04;101612.25;;;25.26;52.00
51496;BME280;37572;52.094;4.870;2023-05-22T07:29:29;101612.66;;;25.41;51.67
51496;BME280;37572;52.094;4.870;2023-05-22T07:31:55;101623.47;;;25.60;51.55
51496;BME280;37572;52.094;4.870;2023-05-22T07:34:20;101622.25;;;25.79;51.48
51496;BME280;37572;52.094;4.870;2023-05-22T07:36:47;101618.59;;;25.85;50.92
51496;BME280;37572;52.094;4.870;2023-05-22T07:39:12;101620.50;;;25.85;50.59
51496;BME280;37572;52.094;4.870;2023-05-22T07:41:38;101622.13;;;25.86;50.18
51496;BME280;37572;52.094;4.870;2023-05-22T07:44:04;101619.06;;;25.82;50.13
51496;BME280;37572;52.094;4.870;2023-05-22T07:46:29;101616.22;;;25.77;50.28
51496;BME280;37572;52.094;4.870;2023-05-22T07:48:54;101628.69;;;25.73;49.92
51496;BME280;37572;52.094;4.870;2023-05-22T07:51:20;101620.75;;;25.72;49.68
51496;BME280;37572;52.094;4.870;2023-05-22T07:53:45;101618.50;;;25.57;49.26
51496;BME280;37572;52.094;4.870;2023-05-22T07:56:10;101625.09;;;25.37;49.16
51496;BME280;37572;52.094;4.870;2023-05-22T07:58:36;101624.81;;;25.15;49.13
51496;BME280;37572;52.094;4.870;2023-05-22T08:01:02;101628.06;;;24.93;49.26
51496;BME280;37572;52.094;4.870;2023-05-22T08:03:29;101628.28;;;24.80;49.99
51496;BME280;37572;52.094;4.870;2023-05-22T08:05:54;101629.91;;;24.81;50.27
51496;BME280;37572;52.094;4.870;2023-05-22T08:08:19;101636.94;;;24.89;50.74
51496;BME280;37572;52.094;4.870;2023-05-22T08:10:45;101637.56;;;25.03;50.73
51496;BME280;37572;52.094;4.870;2023-05-22T08:13:12;101632.88;;;25.22;50.81
51496;BME280;37572;52.094;4.870;2023-05-22T08:15:39;101636.72;;;25.33;50.12
51496;BME280;37572;52.094;4.870;2023-05-22T08:18:05;101632.34;;;25.43;50.46
51496;BME280;37572;52.094;4.870;2023-05-22T08:20:30;101627.72;;;25.56;50.23
51496;BME280;37572;52.094;4.870;2023-05-22T08:22:55;101640.06;;;25.70;50.20
51496;BME280;37572;52.094;4.870;2023-05-22T08:25:21;101622.38;;;25.84;50.02
51496;BME280;37572;52.094;4.870;2023-05-22T08:27:46;101632.69;;;25.94;50.02
51496;BME280;37572;52.094;4.870;2023-05-22T08:30:11;101631.88;;;26.06;49.77
51496;BME280;37572;52.094;4.870;2023-05-22T08:32:37;101632.31;;;26.14;49.62
51496;BME280;37572;52.094;4.870;2023-05-22T08:35:02;101622.59;;;26.18;49.54
51496;BME280;37572;52.094;4.870;2023-05-22T08:37:27;101620.78;;;26.24;49.73
51496;BME280;37572;52.094;4.870;2023-05-22T08:39:53;101619.59;;;26.32;49.57
51496;BME280;37572;52.094;4.870;2023-05-22T08:42:18;101617.06;;;26.42;49.28
51496;BME280;37572;52.094;4.870;2023-05-22T08:44:43;101614.50;;;26.52;49.54
51496;BME280;37572;52.094;4.870;2023-05-22T08:47:10;101620.66;;;26.59;49.65
51496;BME280;37572;52.094;4.870;2023-05-22T08:49:38;101614.59;;;26.69;49.27
51496;BME280;37572;52.094;4.870;2023-05-22T08:52:20;101609.34;;;26.80;49.68
51496;BME280;37572;52.094;4.870;2023-05-22T08:54:51;101605.69;;;26.91;49.11
51496;BME280;37572;52.094;4.870;2023-05-22T08:57:19;101611.59;;;27.00;48.78
51496;BME280;37572;52.094;4.870;2023-05-22T08:59:44;101606.53;;;27.08;48.63
51496;BME280;37572;52.094;4.870;2023-05-22T09:02:11;101605.28;;;27.16;48.51
51496;BME280;37572;52.094;4.870;2023-05-22T09:04:39;101603.22;;;27.23;49.00
51496;BME280;37572;52.094;4.870;2023-05-22T09:07:05;101603.31;;;27.28;49.04
51496;BME280;37572;52.094;4.870;2023-05-22T09:09:35;101601.75;;;27.32;49.05
51496;BME280;37572;52.094;4.870;2023-05-22T09:12:00;101601.00;;;27.37;48.71
51496;BME280;37572;52.094;4.870;2023-05-22T09:14:26;101591.50;;;27.40;48.69
51496;BME280;37572;52.094;4.870;2023-05-22T09:16:52;101597.28;;;27.43;48.78
51496;BME280;37572;52.094;4.870;2023-05-22T09:19:19;101590.22;;;27.47;48.76
51496;BME280;37572;52.094;4.870;2023-05-22T09:21:44;101592.78;;;27.54;48.28
51496;BME280;37572;52.094;4.870;2023-05-22T09:24:10;101588.97;;;27.55;48.33
51496;BME280;37572;52.094;4.870;2023-05-22T09:26:37;101587.38;;;27.59;48.31
51496;BME280;37572;52.094;4.870;2023-05-22T09:29:05;101588.28;;;27.65;48.53
51496;BME280;37572;52.094;4.870;2023-05-22T09:31:30;101590.84;;;27.72;48.29
51496;BME280;37572;52.094;4.870;2023-05-22T09:33:56;101583.28;;;27.79;48.59
51496;BME280;37572;52.094;4.870;2023-05-22T09:36:31;101595.94;;;27.85;48.25
51496;BME280;37572;52.094;4.870;2023-05-22T09:38:59;101590.28;;;27.92;48.21
51496;BME280;37572;52.094;4.870;2023-05-22T09:41:24;101592.88;;;27.98;48.10
51496;BME280;37572;52.094;4.870;2023-05-22T09:43:50;101595.41;;;28.05;47.51
51496;BME280;37572;52.094;4.870;2023-05-22T09:46:15;101590.31;;;28.14;48.05
51496;BME280;37572;52.094;4.870;2023-05-22T09:48:41;101598.09;;;28.22;47.41
51496;BME280;37572;52.094;4.870;2023-05-22T09:51:07;101598.13;;;28.27;47.15
51496;BME280;37572;52.094;4.870;2023-05-22T09:53:34;101600.88;;;28.27;47.44
51496;BME280;37572;52.094;4.870;2023-05-22T09:56:03;101590.47;;;28.29;46.65
51496;BME280;37572;52.094;4.870;2023-05-22T09:58:32;101600.13;;;28.32;46.94
51496;BME280;37572;52.094;4.870;2023-05-22T10:00:59;101587.53;;;28.36;46.91
51496;BME280;37572;52.094;4.870;2023-05-22T10:03:25;101581.56;;;28.39;46.87
51496;BME280;37572;52.094;4.870;2023-05-22T10:05:53;101585.13;;;28.39;46.81
51496;BME280;37572;52.094;4.870;2023-05-22T10:08:31;101586.22;;;28.38;46.54
51496;BME280;37572;52.094;4.870;2023-05-22T10:11:01;101589.00;;;28.43;46.40
51496;BME280;37572;52.094;4.870;2023-05-22T10:13:27;101585.75;;;28.47;45.82
51496;BME280;37572;52.094;4.870;2023-05-22T10:15:53;101591.59;;;28.55;46.37
51496;BME280;37572;52.094;4.870;2023-05-22T10:18:19;101590.09;;;28.65;46.42
51496;BME280;37572;52.094;4.870;2023-05-22T10:20:44;101599.72;;;28.72;45.93
51496;BME280;37572;52.094;4.870;2023-05-22T10:23:13;101593.47;;;28.77;45.61
51496;BME280;37572;52.094;4.870;2023-05-22T10:25:40;101595.44;;;28.82;45.75
51496;BME280;37572;52.094;4.870;2023-05-22T10:28:06;101594.13;;;28.89;46.07
51496;BME280;37572;52.094;4.870;2023-05-22T10:33:40;101590.69;;;29.04;45.01
51496;BME280;37572;52.094;4.870;2023-05-22T10:36:12;101593.22;;;29.11;44.84
51496;BME280;37572;52.094;4.870;2023-05-22T10:41:24;101581.81;;;29.24;44.16
51496;BME280;37572;52.094;4.870;2023-05-22T10:43:50;101589.28;;;29.29;43.87
51496;BME280;37572;52.094;4.870;2023-05-22T10:46:16;101578.06;;;29.36;44.14
51496;BME280;37572;52.094;4.870;2023-05-22T10:48:46;101578.69;;;29.43;43.78
51496;BME280;37572;52.094;4.870;2023-05-22T10:51:13;101574.03;;;29.48;43.73
51496;BME280;37572;52.094;4.870;2023-05-22T10:53:41;101571.34;;;29.53;44.11
51496;BME280;37572;52.094;4.870;2023-05-22T10:56:10;101569.44;;;29.59;43.82
51496;BME280;37572;52.094;4.870;2023-05-22T10:58:36;101574.94;;;29.64;43.43
51496;BME280;37572;52.094;4.870;2023-05-22T11:01:15;101580.75;;;29.68;43.69
51496;BME280;37572;52.094;4.870;2023-05-22T11:04:00;101576.38;;;29.72;43.49
51496;BME280;37572;52.094;4.870;2023-05-22T11:12:17;101573.09;;;29.75;43.65
51496;BME280;37572;52.094;4.870;2023-05-22T11:14:55;101571.34;;;29.53;43.47
51496;BME280;37572;52.094;4.870;2023-05-22T11:17:29;101572.03;;;29.33;43.66
51496;BME280;37572;52.094;4.870;2023-05-22T11:19:59;101572.00;;;29.28;44.73
51496;BME280;37572;52.094;4.870;2023-05-22T11:25:16;101573.72;;;29.40;44.68
51496;BME280;37572;52.094;4.870;2023-05-22T11:27:46;101572.63;;;29.41;44.84
51496;BME280;37572;52.094;4.870;2023-05-22T11:30:12;101571.28;;;29.43;45.22
51496;BME280;37572;52.094;4.870;2023-05-22T11:32:39;101570.16;;;29.44;44.45
51496;BME280;37572;52.094;4.870;2023-05-22T11:35:05;101556.19;;;29.46;44.50
51496;BME280;37572;52.094;4.870;2023-05-22T11:37:36;101560.88;;;29.50;44.55
51496;BME280;37572;52.094;4.870;2023-05-22T11:40:03;101563.63;;;29.50;44.07
51496;BME280;37572;52.094;4.870;2023-05-22T11:42:30;101562.00;;;29.49;43.67
51496;BME280;37572;52.094;4.870;2023-05-22T11:44:55;101565.81;;;29.48;43.25
51496;BME280;37572;52.094;4.870;2023-05-22T11:47:21;101566.63;;;29.49;44.20
51496;BME280;37572;52.094;4.870;2023-05-22T11:49:46;101561.69;;;29.51;44.47
51496;BME280;37572;52.094;4.870;2023-05-22T11:52:12;101561.44;;;29.52;44.06
51496;BME280;37572;52.094;4.870;2023-05-22T11:54:37;101561.47;;;29.58;43.98
51496;BME280;37572;52.094;4.870;2023-05-22T11:57:07;101568.94;;;29.67;44.56
51496;BME280;37572;52.094;4.870;2023-05-22T11:59:32;101571.69;;;29.73;43.92
51496;BME280;37572;52.094;4.870;2023-05-22T12:01:58;101569.25;;;29.76;44.43
51496;BME280;37572;52.094;4.870;2023-05-22T12:04:23;101574.22;;;29.79;43.97
51496;BME280;37572;52.094;4.870;2023-05-22T12:06:49;101571.56;;;29.89;44.27
51496;BME280;37572;52.094;4.870;2023-05-22T12:09:15;101577.09;;;30.05;44.04
51496;BME280;37572;52.094;4.870;2023-05-22T12:11:46;101580.41;;;30.17;43.71
51496;BME280;37572;52.094;4.870;2023-05-22T12:14:12;101578.25;;;30.24;43.50
51496;BME280;37572;52.094;4.870;2023-05-22T12:16:37;101581.03;;;30.30;43.05
51496;BME280;37572;52.094;4.870;2023-05-22T12:19:04;101571.66;;;30.31;43.10
51496;BME280;37572;52.094;4.870;2023-05-22T12:21:30;101583.78;;;30.35;42.46
51496;BME280;37572;52.094;4.870;2023-05-22T12:23:56;101577.50;;;30.39;42.75
51496;BME280;37572;52.094;4.870;2023-05-22T12:26:21;101579.69;;;30.48;42.44
51496;BME280;37572;52.094;4.870;2023-05-22T12:28:47;101584.09;;;30.54;42.21
51496;BME280;37572;52.094;4.870;2023-05-22T12:31:21;101580.81;;;30.62;42.20
51496;BME280;37572;52.094;4.870;2023-05-22T12:33:47;101586.06;;;30.74;42.24
51496;BME280;37572;52.094;4.870;2023-05-22T12:36:12;101587.72;;;30.70;41.84
51496;BME280;37572;52.094;4.870;2023-05-22T12:38:39;101580.81;;;30.62;41.84
51496;BME280;37572;52.094;4.870;2023-05-22T12:41:05;101587.72;;;30.59;42.04
51496;BME280;37572;52.094;4.870;2023-05-22T12:43:31;101579.75;;;30.63;41.94
51496;BME280;37572;52.094;4.870;2023-05-22T12:45:56;101580.56;;;30.74;42.35
51496;BME280;37572;52.094;4.870;2023-05-22T12:48:21;101587.16;;;30.88;41.96
51496;BME280;37572;52.094;4.870;2023-05-22T12:50:47;101581.97;;;31.02;42.08
51496;BME280;37572;52.094;4.870;2023-05-22T12:53:13;101592.41;;;31.21;42.10
51496;BME280;37572;52.094;4.870;2023-05-22T12:55:39;101589.91;;;31.40;41.43
51496;BME280;37572;52.094;4.870;2023-05-22T12:58:05;101602.00;;;31.59;41.26
51496;BME280;37572;52.094;4.870;2023-05-22T13:00:30;101599.22;;;31.75;40.72
51496;BME280;37572;52.094;4.870;2023-05-22T13:02:56;101598.34;;;31.84;40.40
51496;BME280;37572;52.094;4.870;2023-05-22T13:05:22;101593.66;;;31.85;39.79
51496;BME280;37572;52.094;4.870;2023-05-22T13:07:47;101592.56;;;31.81;39.54
51496;BME280;37572;52.094;4.870;2023-05-22T13:10:12;101593.94;;;31.83;39.90
51496;BME280;37572;52.094;4.870;2023-05-22T13:12:38;101594.78;;;31.79;39.02
51496;BME280;37572;52.094;4.870;2023-05-22T13:15:04;101592.88;;;31.69;39.59